Concord, Arkansas
Current Conditions -  °F | °C
As of 3:35 PM on Saturday 25 Oct 2014 (Local Time) from KBVX Reporting Station
Clear Clear  
Wind Chill: 84°   Ceiling: Unl
Heat Index: 86°   Visibility: 10mi
Dew Point: 64°   Wind: 0mph
Humidity: 51%   Direction: NA
Pressure: 30.01"   Gusts: NA
Location:  35.66°N, 91.85°W
Report Text: KBVX 252035Z AUTO 00000KT 10SM CLR 29/18 A3001 RMK AO1
Loading
Personal Weather Stations






























Interactive Weather Map
Tropical Storm Tracking
New forecast layout! Learn more

10-Day Weather Forecast

Advertisements
Track Severe Weather on mobile